CES4526 ZGNN-ZJSY
Flight info
| Callsign | CES4526 |
|---|---|
| Flight time | 0h 54m |
| Altitude | 19700 |
| Route | ZGNN/05 K0746S0600 DCT WUY R339 BHY W70 NYB G221 WL DCT ZJSY/08 |
| Aircraft | A320/M-SDE3FGILRWXY/LB2 |
Departure
| Time | 2026-05-05 15:46 |
|---|---|
| Airport | Nanning Wuxu International Airport (ZGNN) |
Arrival
| Time | 2026-05-05 16:41 |
|---|---|
| Airport | Sanya Phoenix International Airport (ZJSY) |
| Time | Latitude | Longitude | Altitude | Speed | Heading |
|---|---|---|---|---|---|
| 2026-05-05 15:25 | 22.60553 | 108.17847 | 384 ft | 0 kts | 171° |
| 2026-05-05 15:37 | 22.60560 | 108.17845 | 413 ft | 2 kts | 171° |
| 2026-05-05 15:37 | 22.60577 | 108.17843 | 412 ft | 2 kts | 171° |
| 2026-05-05 15:37 | 22.60594 | 108.17840 | 412 ft | 2 kts | 171° |
| 2026-05-05 15:37 | 22.60611 | 108.17837 | 412 ft | 2 kts | 171° |
| 2026-05-05 15:38 | 22.60627 | 108.17837 | 414 ft | 2 kts | 190° |
| 2026-05-05 15:38 | 22.60644 | 108.17840 | 408 ft | 2 kts | 210° |
| 2026-05-05 15:38 | 22.60650 | 108.17843 | 414 ft | 0 kts | 238° |
| 2026-05-05 15:41 | 22.60647 | 108.17837 | 414 ft | 4 kts | 238° |
| 2026-05-05 15:41 | 22.60644 | 108.17832 | 414 ft | 0 kts | 238° |
| 2026-05-05 15:42 | 22.60640 | 108.17825 | 412 ft | 4 kts | 238° |
| 2026-05-05 15:42 | 22.60617 | 108.17785 | 414 ft | 9 kts | 238° |
| 2026-05-05 15:42 | 22.60568 | 108.17715 | 411 ft | 14 kts | 227° |
| 2026-05-05 15:42 | 22.60488 | 108.17623 | 412 ft | 19 kts | 226° |
| 2026-05-05 15:43 | 22.60391 | 108.17508 | 415 ft | 16 kts | 229° |
| 2026-05-05 15:43 | 22.60423 | 108.17402 | 415 ft | 20 kts | 321° |
| 2026-05-05 15:43 | 22.60408 | 108.17298 | 410 ft | 17 kts | 215° |
| 2026-05-05 15:43 | 22.60316 | 108.17199 | 415 ft | 21 kts | 227° |
| 2026-05-05 15:44 | 22.60204 | 108.17070 | 412 ft | 26 kts | 227° |
| 2026-05-05 15:44 | 22.60074 | 108.16919 | 415 ft | 29 kts | 226° |
| 2026-05-05 15:44 | 22.59998 | 108.16813 | 411 ft | 11 kts | 268° |
| 2026-05-05 15:44 | 22.60057 | 108.16743 | 414 ft | 16 kts | 315° |
| 2026-05-05 15:45 | 22.60126 | 108.16715 | 414 ft | 9 kts | 45° |
| 2026-05-05 15:45 | 22.60140 | 108.16736 | 410 ft | 0 kts | 47° |
| 2026-05-05 15:45 | 22.60149 | 108.16746 | 412 ft | 16 kts | 47° |
| 2026-05-05 15:46 | 22.60417 | 108.17053 | 414 ft | 92 kts | 47° |
| 2026-05-05 15:46 | 22.60997 | 108.17715 | 414 ft | 148 kts | 46° |
| 2026-05-05 15:46 | 22.61774 | 108.18629 | 735 ft | 166 kts | 49° |
| 2026-05-05 15:46 | 22.62565 | 108.19546 | 1421 ft | 168 kts | 52° |
| 2026-05-05 15:47 | 22.63398 | 108.20501 | 1822 ft | 186 kts | 52° |
| 2026-05-05 15:47 | 22.64001 | 108.21205 | 2035 ft | 199 kts | 53° |
| 2026-05-05 15:47 | 22.65351 | 108.22758 | 2475 ft | 226 kts | 52° |
| 2026-05-05 15:47 | 22.66489 | 108.24057 | 2873 ft | 247 kts | 51° |
| 2026-05-05 15:48 | 22.67696 | 108.25440 | 3258 ft | 254 kts | 50° |
| 2026-05-05 15:48 | 22.68915 | 108.26829 | 3498 ft | 254 kts | 50° |
| 2026-05-05 15:48 | 22.70133 | 108.28219 | 3871 ft | 256 kts | 50° |
| 2026-05-05 15:48 | 22.71385 | 108.29653 | 4232 ft | 271 kts | 49° |
| 2026-05-05 15:49 | 22.72703 | 108.31167 | 4617 ft | 279 kts | 49° |
| 2026-05-05 15:49 | 22.74045 | 108.32708 | 4980 ft | 282 kts | 48° |
| 2026-05-05 15:49 | 22.75402 | 108.34271 | 5637 ft | 286 kts | 47° |
| 2026-05-05 15:49 | 22.76754 | 108.35828 | 6500 ft | 289 kts | 47° |
| 2026-05-05 15:50 | 22.78136 | 108.37433 | 7293 ft | 293 kts | 49° |
| 2026-05-05 15:50 | 22.79173 | 108.39333 | 8068 ft | 297 kts | 71° |
| 2026-05-05 15:50 | 22.79482 | 108.41548 | 8819 ft | 301 kts | 94° |
| 2026-05-05 15:50 | 22.79001 | 108.43752 | 9564 ft | 304 kts | 116° |
| 2026-05-05 15:51 | 22.78039 | 108.45802 | 10295 ft | 304 kts | 118° |
| 2026-05-05 15:51 | 22.77083 | 108.47804 | 11202 ft | 301 kts | 118° |
| 2026-05-05 15:51 | 22.76077 | 108.49857 | 11597 ft | 314 kts | 124° |
| 2026-05-05 15:51 | 22.74682 | 108.51695 | 12183 ft | 318 kts | 141° |
| 2026-05-05 15:52 | 22.72873 | 108.53075 | 12745 ft | 323 kts | 153° |
| 2026-05-05 15:52 | 22.70928 | 108.54476 | 12881 ft | 348 kts | 146° |
| 2026-05-05 15:52 | 22.68934 | 108.56098 | 13012 ft | 369 kts | 145° |
| 2026-05-05 15:52 | 22.66837 | 108.57817 | 13229 ft | 385 kts | 145° |
| 2026-05-05 15:53 | 22.64680 | 108.59587 | 13731 ft | 392 kts | 145° |
| 2026-05-05 15:53 | 22.62472 | 108.61334 | 14221 ft | 396 kts | 147° |
| 2026-05-05 15:53 | 22.60189 | 108.63026 | 14743 ft | 399 kts | 148° |
| 2026-05-05 15:53 | 22.57883 | 108.64715 | 15278 ft | 401 kts | 148° |
| 2026-05-05 15:54 | 22.55559 | 108.66412 | 15810 ft | 404 kts | 148° |
| 2026-05-05 15:54 | 22.53222 | 108.68117 | 16341 ft | 406 kts | 148° |
| 2026-05-05 15:54 | 22.50850 | 108.69782 | 16856 ft | 408 kts | 152° |
| 2026-05-05 15:54 | 22.48377 | 108.71202 | 17351 ft | 409 kts | 155° |
| 2026-05-05 15:55 | 22.45866 | 108.72666 | 17850 ft | 412 kts | 153° |
| 2026-05-05 15:55 | 22.43348 | 108.74170 | 18310 ft | 414 kts | 153° |
| 2026-05-05 15:55 | 22.40825 | 108.75678 | 18707 ft | 417 kts | 153° |
| 2026-05-05 15:55 | 22.38276 | 108.77204 | 19101 ft | 420 kts | 153° |
| 2026-05-05 15:56 | 22.35713 | 108.78738 | 19470 ft | 423 kts | 153° |
| 2026-05-05 15:56 | 22.33132 | 108.80280 | 19598 ft | 424 kts | 153° |
| 2026-05-05 15:56 | 22.30550 | 108.81821 | 19633 ft | 425 kts | 153° |
| 2026-05-05 15:56 | 22.27978 | 108.83358 | 19629 ft | 424 kts | 153° |
| 2026-05-05 15:57 | 22.25398 | 108.84903 | 19634 ft | 424 kts | 153° |
| 2026-05-05 15:57 | 22.22820 | 108.86446 | 19637 ft | 424 kts | 153° |
| 2026-05-05 15:57 | 22.20244 | 108.87988 | 19637 ft | 424 kts | 153° |
| 2026-05-05 15:57 | 22.17666 | 108.89531 | 19636 ft | 424 kts | 153° |
| 2026-05-05 15:58 | 22.15089 | 108.91073 | 19637 ft | 424 kts | 153° |
| 2026-05-05 15:58 | 22.12510 | 108.92615 | 19636 ft | 424 kts | 153° |
| 2026-05-05 15:58 | 22.09936 | 108.94155 | 19639 ft | 424 kts | 153° |
| 2026-05-05 15:58 | 22.07357 | 108.95696 | 19637 ft | 424 kts | 153° |
| 2026-05-05 15:59 | 22.04813 | 108.97216 | 19638 ft | 424 kts | 153° |
| 2026-05-05 15:59 | 22.02236 | 108.98756 | 19644 ft | 424 kts | 153° |
| 2026-05-05 15:59 | 21.99661 | 109.00295 | 19644 ft | 424 kts | 153° |
| 2026-05-05 15:59 | 21.97084 | 109.01835 | 19644 ft | 424 kts | 153° |
| 2026-05-05 16:00 | 21.94507 | 109.03382 | 19639 ft | 424 kts | 153° |
| 2026-05-05 16:00 | 21.91934 | 109.04935 | 19638 ft | 424 kts | 153° |
| 2026-05-05 16:00 | 21.89363 | 109.06487 | 19638 ft | 424 kts | 153° |
| 2026-05-05 16:00 | 21.86787 | 109.08042 | 19639 ft | 424 kts | 153° |
| 2026-05-05 16:01 | 21.84212 | 109.09597 | 19639 ft | 425 kts | 153° |
| 2026-05-05 16:01 | 21.81618 | 109.11112 | 19640 ft | 424 kts | 155° |
| 2026-05-05 16:01 | 21.78999 | 109.12572 | 19643 ft | 424 kts | 155° |
| 2026-05-05 16:01 | 21.76376 | 109.14031 | 19641 ft | 424 kts | 155° |
| 2026-05-05 16:02 | 21.73752 | 109.15490 | 19642 ft | 425 kts | 155° |
| 2026-05-05 16:02 | 21.71126 | 109.16950 | 19640 ft | 425 kts | 155° |
| 2026-05-05 16:02 | 21.68499 | 109.18410 | 19640 ft | 425 kts | 155° |
| 2026-05-05 16:02 | 21.65876 | 109.19868 | 19640 ft | 425 kts | 155° |
| 2026-05-05 16:03 | 21.63247 | 109.21330 | 19636 ft | 425 kts | 155° |
| 2026-05-05 16:03 | 21.60620 | 109.22791 | 19634 ft | 425 kts | 155° |
| 2026-05-05 16:03 | 21.57994 | 109.24252 | 19634 ft | 426 kts | 155° |
| 2026-05-05 16:03 | 21.55398 | 109.25695 | 19638 ft | 426 kts | 155° |
| 2026-05-05 16:04 | 21.52764 | 109.27157 | 19640 ft | 426 kts | 155° |
| 2026-05-05 16:04 | 21.50128 | 109.28619 | 19641 ft | 426 kts | 155° |
| 2026-05-05 16:04 | 21.47494 | 109.30081 | 19644 ft | 427 kts | 155° |
| 2026-05-05 16:04 | 21.44856 | 109.31544 | 19647 ft | 427 kts | 155° |
| 2026-05-05 16:05 | 21.42219 | 109.33006 | 19652 ft | 427 kts | 155° |
| 2026-05-05 16:05 | 21.39578 | 109.34471 | 19654 ft | 427 kts | 155° |
| 2026-05-05 16:05 | 21.36943 | 109.35933 | 19657 ft | 427 kts | 155° |
| 2026-05-05 16:05 | 21.34307 | 109.37396 | 19654 ft | 426 kts | 155° |
| 2026-05-05 16:06 | 21.31673 | 109.38857 | 19655 ft | 426 kts | 155° |
| 2026-05-05 16:06 | 21.29039 | 109.40318 | 19648 ft | 426 kts | 155° |
| 2026-05-05 16:06 | 21.26407 | 109.41777 | 19648 ft | 426 kts | 155° |
| 2026-05-05 16:06 | 21.23771 | 109.43237 | 19649 ft | 426 kts | 155° |
| 2026-05-05 16:07 | 21.21133 | 109.44697 | 19650 ft | 427 kts | 155° |
| 2026-05-05 16:07 | 21.18496 | 109.46155 | 19648 ft | 427 kts | 155° |
| 2026-05-05 16:07 | 21.15856 | 109.47613 | 19649 ft | 427 kts | 155° |
| 2026-05-05 16:07 | 21.13215 | 109.49071 | 19650 ft | 427 kts | 155° |
| 2026-05-05 16:08 | 21.10571 | 109.50530 | 19651 ft | 427 kts | 155° |
| 2026-05-05 16:08 | 21.07965 | 109.51968 | 19651 ft | 427 kts | 155° |
| 2026-05-05 16:08 | 21.05324 | 109.53426 | 19651 ft | 427 kts | 155° |
| 2026-05-05 16:08 | 21.02684 | 109.54883 | 19651 ft | 427 kts | 155° |
| 2026-05-05 16:09 | 21.00042 | 109.56342 | 19648 ft | 427 kts | 155° |
| 2026-05-05 16:09 | 20.97404 | 109.57798 | 19648 ft | 427 kts | 155° |
| 2026-05-05 16:09 | 20.94765 | 109.59254 | 19647 ft | 427 kts | 155° |
| 2026-05-05 16:09 | 20.92125 | 109.60709 | 19648 ft | 427 kts | 155° |
| 2026-05-05 16:10 | 20.89483 | 109.62165 | 19651 ft | 427 kts | 155° |
| 2026-05-05 16:10 | 20.86842 | 109.63621 | 19651 ft | 427 kts | 155° |
| 2026-05-05 16:10 | 20.84200 | 109.65077 | 19652 ft | 427 kts | 155° |
| 2026-05-05 16:10 | 20.81557 | 109.66532 | 19653 ft | 427 kts | 155° |
| 2026-05-05 16:11 | 20.78913 | 109.67988 | 19651 ft | 427 kts | 155° |
| 2026-05-05 16:11 | 20.70988 | 109.72350 | 19652 ft | 427 kts | 155° |
| 2026-05-05 16:12 | 20.68347 | 109.73803 | 19655 ft | 427 kts | 155° |
| 2026-05-05 16:12 | 20.63064 | 109.76710 | 19653 ft | 427 kts | 155° |
| 2026-05-05 16:13 | 20.55175 | 109.81030 | 19647 ft | 427 kts | 155° |
| 2026-05-05 16:13 | 20.52533 | 109.82472 | 19647 ft | 427 kts | 155° |
| 2026-05-05 16:13 | 20.49887 | 109.83915 | 19647 ft | 427 kts | 155° |
| 2026-05-05 16:14 | 20.44600 | 109.86799 | 19649 ft | 427 kts | 155° |
| 2026-05-05 16:14 | 20.39312 | 109.89683 | 19648 ft | 427 kts | 155° |
| 2026-05-05 16:15 | 20.34026 | 109.92565 | 19644 ft | 427 kts | 155° |
| 2026-05-05 16:15 | 20.28744 | 109.95443 | 19638 ft | 426 kts | 155° |
| 2026-05-05 16:16 | 20.23465 | 109.98312 | 19643 ft | 426 kts | 155° |
| 2026-05-05 16:16 | 20.18192 | 110.01175 | 19641 ft | 425 kts | 155° |
| 2026-05-05 16:17 | 20.12955 | 110.04017 | 19642 ft | 425 kts | 155° |
| 2026-05-05 16:17 | 20.10319 | 110.05447 | 19642 ft | 425 kts | 155° |
| 2026-05-05 16:18 | 20.05043 | 110.08301 | 19645 ft | 428 kts | 157° |
| 2026-05-05 16:18 | 20.02227 | 110.09427 | 19656 ft | 438 kts | 168° |
| 2026-05-05 16:18 | 19.96132 | 110.09962 | 19653 ft | 442 kts | 188° |
| 2026-05-05 16:19 | 19.93124 | 110.09364 | 19648 ft | 439 kts | 198° |
| 2026-05-05 16:19 | 19.90274 | 110.08237 | 19654 ft | 436 kts | 207° |
| 2026-05-05 16:19 | 19.84750 | 110.05573 | 19653 ft | 436 kts | 207° |
| 2026-05-05 16:20 | 19.79225 | 110.02905 | 19650 ft | 436 kts | 207° |
| 2026-05-05 16:20 | 19.73701 | 110.00243 | 19651 ft | 436 kts | 207° |
| 2026-05-05 16:21 | 19.68171 | 109.97583 | 19650 ft | 436 kts | 207° |
| 2026-05-05 16:22 | 19.59879 | 109.93596 | 19646 ft | 436 kts | 206° |
| 2026-05-05 16:22 | 19.54384 | 109.90952 | 19647 ft | 437 kts | 206° |
| 2026-05-05 16:23 | 19.48853 | 109.88290 | 19653 ft | 437 kts | 206° |
| 2026-05-05 16:23 | 19.46085 | 109.86961 | 19657 ft | 437 kts | 206° |
| 2026-05-05 16:23 | 19.40549 | 109.84306 | 19659 ft | 437 kts | 206° |
| 2026-05-05 16:24 | 19.37779 | 109.82978 | 19660 ft | 437 kts | 206° |
| 2026-05-05 16:24 | 19.35010 | 109.81652 | 19659 ft | 437 kts | 205° |
| 2026-05-05 16:24 | 19.29467 | 109.79018 | 19656 ft | 437 kts | 205° |
| 2026-05-05 16:25 | 19.26691 | 109.77706 | 19660 ft | 437 kts | 205° |
| 2026-05-05 16:25 | 19.21143 | 109.75077 | 19667 ft | 437 kts | 206° |
| 2026-05-05 16:25 | 19.18372 | 109.73750 | 19669 ft | 437 kts | 206° |
| 2026-05-05 16:26 | 19.13772 | 109.71535 | 19667 ft | 437 kts | 206° |
| 2026-05-05 16:26 | 19.08243 | 109.68871 | 19672 ft | 437 kts | 206° |
| 2026-05-05 16:27 | 19.05479 | 109.67539 | 19668 ft | 436 kts | 206° |
| 2026-05-05 16:27 | 19.02728 | 109.66216 | 19481 ft | 430 kts | 206° |
| 2026-05-05 16:27 | 18.99994 | 109.64905 | 18650 ft | 432 kts | 206° |
| 2026-05-05 16:27 | 18.96394 | 109.63188 | 17891 ft | 425 kts | 206° |
| 2026-05-05 16:28 | 18.94583 | 109.62325 | 17515 ft | 421 kts | 206° |
| 2026-05-05 16:28 | 18.91938 | 109.61061 | 16986 ft | 413 kts | 206° |
| 2026-05-05 16:28 | 18.88503 | 109.59413 | 16281 ft | 406 kts | 206° |
| 2026-05-05 16:28 | 18.85948 | 109.58188 | 15766 ft | 401 kts | 206° |
| 2026-05-05 16:29 | 18.83416 | 109.56976 | 15220 ft | 397 kts | 206° |
| 2026-05-05 16:29 | 18.81757 | 109.56182 | 14863 ft | 395 kts | 206° |
| 2026-05-05 16:29 | 18.79260 | 109.54990 | 14302 ft | 393 kts | 206° |
| 2026-05-05 16:29 | 18.76779 | 109.53806 | 13732 ft | 390 kts | 206° |
| 2026-05-05 16:30 | 18.74312 | 109.52627 | 13109 ft | 388 kts | 206° |
| 2026-05-05 16:30 | 18.71859 | 109.51455 | 12506 ft | 385 kts | 205° |
| 2026-05-05 16:30 | 18.69429 | 109.50296 | 11907 ft | 382 kts | 205° |
| 2026-05-05 16:30 | 18.67011 | 109.49141 | 11278 ft | 380 kts | 205° |
| 2026-05-05 16:31 | 18.64616 | 109.47996 | 10840 ft | 374 kts | 205° |
| 2026-05-05 16:31 | 18.62298 | 109.46890 | 10727 ft | 357 kts | 205° |
| 2026-05-05 16:31 | 18.60082 | 109.45836 | 10589 ft | 342 kts | 205° |
| 2026-05-05 16:31 | 18.57973 | 109.44788 | 10472 ft | 328 kts | 211° |
| 2026-05-05 16:32 | 18.56167 | 109.43419 | 10355 ft | 314 kts | 223° |
| 2026-05-05 16:32 | 18.54657 | 109.41820 | 10236 ft | 302 kts | 226° |
| 2026-05-05 16:32 | 18.53201 | 109.40261 | 10047 ft | 295 kts | 226° |
| 2026-05-05 16:32 | 18.51763 | 109.38729 | 9954 ft | 293 kts | 226° |
| 2026-05-05 16:33 | 18.50303 | 109.37193 | 9409 ft | 301 kts | 225° |
| 2026-05-05 16:33 | 18.48828 | 109.35654 | 9116 ft | 296 kts | 225° |
| 2026-05-05 16:33 | 18.47384 | 109.34151 | 8578 ft | 299 kts | 225° |
| 2026-05-05 16:33 | 18.45871 | 109.32578 | 7791 ft | 311 kts | 225° |
| 2026-05-05 16:34 | 18.44313 | 109.30951 | 7179 ft | 317 kts | 225° |
| 2026-05-05 16:34 | 18.42775 | 109.29341 | 6974 ft | 306 kts | 224° |
| 2026-05-05 16:34 | 18.41294 | 109.27794 | 6834 ft | 294 kts | 224° |
| 2026-05-05 16:34 | 18.39873 | 109.26310 | 6708 ft | 282 kts | 224° |
| 2026-05-05 16:35 | 18.38479 | 109.24876 | 6315 ft | 281 kts | 223° |
| 2026-05-05 16:35 | 18.37070 | 109.23452 | 5890 ft | 280 kts | 223° |
| 2026-05-05 16:35 | 18.35665 | 109.22038 | 5496 ft | 278 kts | 222° |
| 2026-05-05 16:35 | 18.34271 | 109.20636 | 5121 ft | 274 kts | 222° |
| 2026-05-05 16:36 | 18.32771 | 109.19521 | 4749 ft | 257 kts | 199° |
| 2026-05-05 16:36 | 18.31044 | 109.19294 | 4384 ft | 251 kts | 170° |
| 2026-05-05 16:36 | 18.29441 | 109.19943 | 4007 ft | 248 kts | 143° |
| 2026-05-05 16:36 | 18.28306 | 109.21289 | 3420 ft | 248 kts | 115° |
| 2026-05-05 16:37 | 18.27933 | 109.23009 | 3068 ft | 238 kts | 89° |
| 2026-05-05 16:37 | 18.28122 | 109.24689 | 2767 ft | 226 kts | 83° |
| 2026-05-05 16:37 | 18.28335 | 109.26295 | 2488 ft | 217 kts | 83° |
| 2026-05-05 16:37 | 18.28536 | 109.27819 | 2224 ft | 209 kts | 84° |
| 2026-05-05 16:38 | 18.28734 | 109.29330 | 1943 ft | 202 kts | 83° |
| 2026-05-05 16:38 | 18.28918 | 109.30734 | 1722 ft | 189 kts | 83° |
| 2026-05-05 16:38 | 18.29092 | 109.32063 | 1462 ft | 178 kts | 83° |
| 2026-05-05 16:38 | 18.29258 | 109.33306 | 1227 ft | 166 kts | 83° |
| 2026-05-05 16:39 | 18.29409 | 109.34479 | 1017 ft | 157 kts | 82° |
| 2026-05-05 16:39 | 18.29538 | 109.35555 | 931 ft | 144 kts | 83° |
| 2026-05-05 16:39 | 18.29686 | 109.36579 | 721 ft | 141 kts | 82° |
| 2026-05-05 16:39 | 18.29818 | 109.37588 | 511 ft | 136 kts | 83° |
| 2026-05-05 16:40 | 18.29935 | 109.38592 | 344 ft | 139 kts | 84° |
| 2026-05-05 16:40 | 18.30076 | 109.39596 | 170 ft | 138 kts | 82° |
| 2026-05-05 16:40 | 18.30197 | 109.40560 | 100 ft | 118 kts | 82° |
| 2026-05-05 16:40 | 18.30294 | 109.41237 | 101 ft | 69 kts | 82° |
| 2026-05-05 16:41 | 18.30337 | 109.41573 | 103 ft | 32 kts | 82° |
| 2026-05-05 16:41 | 18.30402 | 109.41749 | 103 ft | 15 kts | 59° |
| 2026-05-05 16:41 | 18.30451 | 109.41830 | 107 ft | 8 kts | 55° |
| 2026-05-05 16:41 | 18.30476 | 109.41860 | 109 ft | 4 kts | 37° |
| 2026-05-05 16:42 | 18.30511 | 109.41869 | 111 ft | 7 kts | 350° |
| 2026-05-05 16:42 | 18.30541 | 109.41811 | 114 ft | 14 kts | 263° |
| 2026-05-05 16:42 | 18.30525 | 109.41681 | 114 ft | 22 kts | 262° |
| 2026-05-05 16:42 | 18.30503 | 109.41522 | 114 ft | 21 kts | 262° |
| 2026-05-05 16:43 | 18.30487 | 109.41404 | 112 ft | 18 kts | 263° |
| 2026-05-05 16:43 | 18.30474 | 109.41293 | 113 ft | 16 kts | 262° |
| 2026-05-05 16:43 | 18.30455 | 109.41154 | 113 ft | 22 kts | 262° |
| 2026-05-05 16:43 | 18.30439 | 109.41032 | 113 ft | 15 kts | 262° |
| 2026-05-05 16:44 | 18.30426 | 109.40928 | 113 ft | 12 kts | 262° |
| 2026-05-05 16:44 | 18.30418 | 109.40859 | 113 ft | 10 kts | 271° |
| 2026-05-05 16:44 | 18.30481 | 109.40820 | 114 ft | 13 kts | 356° |
| 2026-05-05 16:44 | 18.30589 | 109.40805 | 115 ft | 18 kts | 352° |
| 2026-05-05 16:45 | 18.30692 | 109.40789 | 117 ft | 14 kts | 341° |
| 2026-05-05 16:45 | 18.30715 | 109.40685 | 114 ft | 18 kts | 261° |
| 2026-05-05 16:45 | 18.30697 | 109.40546 | 117 ft | 15 kts | 262° |
| 2026-05-05 16:45 | 18.30725 | 109.40499 | 116 ft | 8 kts | 360° |
| 2026-05-05 16:46 | 18.30762 | 109.40497 | 114 ft | 0 kts | 353° |